Buffalo, Ohio
Current Conditions -  °F | °C
As of 10:53 PM on Saturday 25 Oct 2014 (Local Time) from KZZV Reporting Station
Clear Clear  
Wind Chill: 60°   Ceiling: Unl
Heat Index: 60°   Visibility: 10mi
Dew Point: 36°   Wind: 13mph
Humidity: 41%   Direction: 310°NW
Pressure: 29.86"   Gusts: NA
Location:  39.92°N, 81.52°W
Report Text: KZZV 260253Z AUTO 31011KT 10SM CLR 16/02 A2986 RMK AO2 SLP108 T01560022 53015
Loading
Personal Weather Stations






























Interactive Weather Map
Tropical Storm Tracking
New forecast layout! Learn more

10-Day Weather Forecast

Advertisements
Track Severe Weather on mobile